createdAt,value
2024-02-08T00:01:55.880Z,2.20
2024-02-08T00:05:01.529Z,3.00
2024-02-08T00:08:07.304Z,1.90
2024-02-08T00:11:12.995Z,4.10
2024-02-08T00:14:19.520Z,3.22
2024-02-08T00:17:24.807Z,4.30
2024-02-08T00:20:30.727Z,2.80
2024-02-08T00:23:36.106Z,3.35
2024-02-08T00:26:41.776Z,3.03
2024-02-08T00:29:47.768Z,2.90
2024-02-08T00:32:54.401Z,1.55
2024-02-08T00:35:59.867Z,1.85
2024-02-08T00:39:07.028Z,1.80
2024-02-08T00:42:12.835Z,2.28
2024-02-08T00:45:18.449Z,1.63
2024-02-08T00:48:24.143Z,1.05
2024-02-08T00:51:32.904Z,0.88
2024-02-08T00:54:38.218Z,1.20
2024-02-08T00:57:44.029Z,1.02
2024-02-08T01:00:50.121Z,1.73
2024-02-08T01:03:37.352Z,1.52
2024-02-08T01:06:42.906Z,1.73
2024-02-08T01:09:49.295Z,2.13
2024-02-08T01:12:55.239Z,1.73
2024-02-08T01:16:00.956Z,1.95
2024-02-08T01:19:06.331Z,2.20
2024-02-08T01:22:13.646Z,2.22
2024-02-08T01:25:19.369Z,2.30
2024-02-08T01:28:08.563Z,1.98
2024-02-08T01:31:14.205Z,1.33
2024-02-08T01:34:19.970Z,1.80
2024-02-08T01:37:25.580Z,1.73
2024-02-08T01:40:31.723Z,2.10
2024-02-08T01:43:37.316Z,2.25
2024-02-08T01:46:43.511Z,2.80
2024-02-08T01:49:51.857Z,2.33
2024-02-08T01:52:57.808Z,2.10
2024-02-08T01:56:04.956Z,2.20
2024-02-08T01:59:11.386Z,2.67
2024-02-08T02:02:21.445Z,2.65
2024-02-08T02:05:27.507Z,1.95
2024-02-08T02:08:39.748Z,2.33
2024-02-08T02:11:58.593Z,2.58
2024-02-08T02:15:04.823Z,1.42
2024-02-08T02:18:12.682Z,0.85
2024-02-08T02:21:19.086Z,1.38
2024-02-08T02:24:25.197Z,1.50
2024-02-08T02:27:32.456Z,1.75
2024-02-08T02:30:38.601Z,2.10
2024-02-08T02:33:44.684Z,2.58
2024-02-08T02:36:50.943Z,2.50
2024-02-08T02:39:57.040Z,5.93
2024-02-08T02:43:02.748Z,2.53
2024-02-08T02:46:08.781Z,2.58
2024-02-08T02:49:14.551Z,2.60
2024-02-08T02:52:20.163Z,2.35
2024-02-08T02:55:26.192Z,2.05
2024-02-08T02:58:31.834Z,1.45
2024-02-08T03:01:37.608Z,1.48
2024-02-08T03:04:44.656Z,1.40
2024-02-08T03:07:50.326Z,1.90
2024-02-08T03:10:59.437Z,1.42
2024-02-08T03:14:05.623Z,1.80
2024-02-08T03:17:11.813Z,1.52
2024-02-08T03:20:19.297Z,1.30
2024-02-08T03:23:25.050Z,1.30
2024-02-08T03:26:30.689Z,0.70
2024-02-08T03:29:36.371Z,1.55
2024-02-08T03:32:42.145Z,0.82
2024-02-08T03:35:50.787Z,0.75
2024-02-08T03:38:56.330Z,1.08
2024-02-08T03:42:02.168Z,1.00
2024-02-08T03:45:08.480Z,1.30
2024-02-08T03:48:15.130Z,1.33
2024-02-08T03:51:20.965Z,0.98
2024-02-08T03:54:26.292Z,1.38
2024-02-08T03:57:31.980Z,1.15
2024-02-08T04:00:38.118Z,1.80
2024-02-08T04:03:42.432Z,1.35
2024-02-08T04:06:48.878Z,1.42
2024-02-08T04:09:58.016Z,1.60
2024-02-08T04:13:02.752Z,1.27
2024-02-08T04:16:07.298Z,1.27
2024-02-08T04:19:11.343Z,1.05
2024-02-08T04:22:15.250Z,1.13
2024-02-08T04:25:19.585Z,1.50
2024-02-08T04:28:26.667Z,2.10
2024-02-08T04:31:33.002Z,1.77
2024-02-08T04:34:37.019Z,2.45
2024-02-08T04:37:41.844Z,2.47
2024-02-08T04:40:45.726Z,2.67
2024-02-08T04:43:50.112Z,1.83
2024-02-08T04:46:54.208Z,2.58
2024-02-08T04:49:59.833Z,2.92
2024-02-08T04:53:04.068Z,3.00
2024-02-08T04:55:49.844Z,3.28
2024-02-08T04:59:05.524Z,4.50
2024-02-08T05:01:47.067Z,3.90
2024-02-08T05:04:41.771Z,3.53
2024-02-08T05:07:29.370Z,3.08
2024-02-08T05:10:16.690Z,1.92
2024-02-08T05:13:06.017Z,2.20
2024-02-08T05:15:53.198Z,2.03
2024-02-08T05:18:38.757Z,2.45
2024-02-08T05:21:24.641Z,2.20
2024-02-08T05:24:14.874Z,3.45
2024-02-08T05:27:00.870Z,4.15
2024-02-08T05:29:47.863Z,3.03
2024-02-08T05:32:37.779Z,3.45
2024-02-08T05:35:24.147Z,3.20
2024-02-08T05:38:10.046Z,2.80
2024-02-08T05:40:59.712Z,3.90
2024-02-08T05:43:47.450Z,3.17
2024-02-08T05:46:39.223Z,4.63
2024-02-08T05:49:27.572Z,2.97
2024-02-08T05:52:15.332Z,2.95
2024-02-08T05:55:04.747Z,2.65
2024-02-08T05:57:50.447Z,2.70
2024-02-08T06:00:47.376Z,1.50
2024-02-08T06:03:39.018Z,1.75
2024-02-08T06:06:34.728Z,2.47
2024-02-08T06:09:39.507Z,3.10
2024-02-08T06:13:05.894Z,4.55
2024-02-08T06:16:11.531Z,4.80
2024-02-08T06:19:17.797Z,3.50
2024-02-08T06:22:42.253Z,3.55
2024-02-08T06:25:47.710Z,2.15
2024-02-08T06:28:53.502Z,1.73
2024-02-08T06:31:59.194Z,2.42
2024-02-08T06:35:05.346Z,3.83
2024-02-08T06:38:20.297Z,5.82
2024-02-08T06:41:05.743Z,5.07
2024-02-08T06:44:01.045Z,5.85
2024-02-08T06:46:50.215Z,4.50
2024-02-08T06:49:54.504Z,3.75
2024-02-08T06:52:58.607Z,5.32
2024-02-08T06:56:03.904Z,6.05
2024-02-08T06:59:08.393Z,7.07
2024-02-08T07:02:14.274Z,4.75
2024-02-08T07:05:18.471Z,3.03
2024-02-08T07:08:27.622Z,1.95
2024-02-08T07:11:35.628Z,3.70
2024-02-08T07:14:39.802Z,3.20
2024-02-08T07:17:44.196Z,4.53
2024-02-08T07:20:48.380Z,8.88
2024-02-08T07:23:52.936Z,10.50
2024-02-08T07:26:57.182Z,8.75
2024-02-08T07:30:01.653Z,9.60
2024-02-08T07:33:06.872Z,8.23
2024-02-08T07:36:10.630Z,7.03
2024-02-08T07:39:15.025Z,5.00
2024-02-08T07:42:20.881Z,4.35
2024-02-08T07:45:26.716Z,4.70
2024-02-08T07:48:33.621Z,4.00
2024-02-08T07:51:39.265Z,4.03
2024-02-08T07:54:45.449Z,5.40
2024-02-08T07:57:32.894Z,6.55
2024-02-08T08:00:37.592Z,6.45
2024-02-08T08:03:46.013Z,7.32
2024-02-08T08:07:10.158Z,7.13
2024-02-08T08:10:21.990Z,7.30
2024-02-08T08:13:27.309Z,6.55
2024-02-08T08:16:31.967Z,7.68
2024-02-08T08:19:38.022Z,6.38
2024-02-08T08:22:26.689Z,7.53
2024-02-08T08:25:32.493Z,10.27
2024-02-08T08:28:30.489Z,4.05
2024-02-08T08:31:45.354Z,3.78
2024-02-08T08:34:37.324Z,4.10
2024-02-08T08:37:43.006Z,4.38
2024-02-08T08:40:41.422Z,5.00
2024-02-08T08:43:32.762Z,6.88
2024-02-08T08:46:21.151Z,6.07
2024-02-08T08:49:07.641Z,6.85
2024-02-08T08:52:00.286Z,5.68
2024-02-08T08:54:58.121Z,5.00
2024-02-08T08:57:45.425Z,4.85
2024-02-08T09:00:38.536Z,3.63
2024-02-08T09:03:27.661Z,3.03
2024-02-08T09:06:13.921Z,5.72
2024-02-08T09:09:00.424Z,3.20
2024-02-08T09:11:46.270Z,3.90
2024-02-08T09:14:33.567Z,3.50
2024-02-08T09:17:40.131Z,3.50
2024-02-08T09:20:37.301Z,2.55
2024-02-08T09:23:27.112Z,2.97
2024-02-08T09:26:13.170Z,3.53
2024-02-08T09:29:01.364Z,3.50
2024-02-08T09:31:47.891Z,3.03
2024-02-08T09:34:42.295Z,3.13
2024-02-08T09:37:30.717Z,2.70
2024-02-08T09:40:23.707Z,3.40
2024-02-08T09:43:19.431Z,3.47
2024-02-08T09:46:19.022Z,3.38
2024-02-08T09:49:20.312Z,3.67
2024-02-08T09:52:17.913Z,3.85
2024-02-08T09:55:19.990Z,4.45
2024-02-08T09:58:11.744Z,3.95
2024-02-08T10:00:59.480Z,3.45
2024-02-08T10:03:47.606Z,4.13
2024-02-08T10:06:43.200Z,5.68
2024-02-08T10:09:47.345Z,3.40
2024-02-08T10:12:54.398Z,2.75
2024-02-08T10:16:01.100Z,2.63
2024-02-08T10:19:15.834Z,3.00
2024-02-08T10:22:22.067Z,2.67
2024-02-08T10:25:28.238Z,2.97
2024-02-08T10:30:26.606Z,10.07
2024-02-08T10:33:38.513Z,5.43
2024-02-08T10:36:45.295Z,5.93
2024-02-08T10:39:51.434Z,4.18
2024-02-08T10:42:57.051Z,3.13
2024-02-08T10:46:02.993Z,3.50
2024-02-08T10:49:08.875Z,4.28
2024-02-08T10:52:15.737Z,4.93
2024-02-08T10:55:21.397Z,4.88
2024-02-08T10:58:10.997Z,3.65
2024-02-08T11:01:35.319Z,3.85
2024-02-08T11:04:50.298Z,4.53
2024-02-08T11:07:57.091Z,2.65
2024-02-08T11:11:06.511Z,3.45
2024-02-08T11:14:13.930Z,7.32
2024-02-08T11:17:20.757Z,4.35
2024-02-08T11:20:18.358Z,3.22
2024-02-08T11:23:24.399Z,3.35
2024-02-08T11:26:10.568Z,3.20
2024-02-08T11:29:26.929Z,4.00
2024-02-08T11:32:39.119Z,4.47
2024-02-08T11:35:50.337Z,2.90
2024-02-08T11:38:56.685Z,2.53
2024-02-08T11:42:02.276Z,3.35
2024-02-08T11:45:07.816Z,3.28
2024-02-08T11:48:13.369Z,2.53
2024-02-08T11:51:30.922Z,3.17
2024-02-08T11:54:49.089Z,4.57
2024-02-08T11:57:59.212Z,4.63
2024-02-08T12:00:50.453Z,4.43
2024-02-08T12:03:42.979Z,2.55
2024-02-08T12:06:31.164Z,3.65
2024-02-08T12:09:24.079Z,4.75
2024-02-08T12:12:30.026Z,3.58
2024-02-08T12:15:36.861Z,2.20
2024-02-08T12:18:44.406Z,3.08
2024-02-08T12:21:50.858Z,3.05
2024-02-08T12:24:58.226Z,6.10
2024-02-08T12:27:50.682Z,3.47
2024-02-08T12:30:40.980Z,4.22
2024-02-08T12:33:30.255Z,3.95
2024-02-08T12:36:21.024Z,5.65
2024-02-08T12:39:19.116Z,7.00
2024-02-08T12:42:06.366Z,7.57
2024-02-08T12:45:12.630Z,8.40
2024-02-08T12:47:59.132Z,9.85
2024-02-08T12:50:45.057Z,10.05
2024-02-08T12:53:34.488Z,8.88
2024-02-08T12:56:22.024Z,8.63
2024-02-08T12:59:27.603Z,10.00
2024-02-08T13:02:37.166Z,8.65
2024-02-08T13:05:30.341Z,7.20
2024-02-08T13:08:22.878Z,11.70
2024-02-08T13:14:05.898Z,6.78
2024-02-08T13:16:54.673Z,9.95
2024-02-08T13:19:41.386Z,5.18
2024-02-08T13:22:32.539Z,7.22
2024-02-08T13:25:39.540Z,8.00
2024-02-08T13:28:46.381Z,8.75
2024-02-08T13:31:52.033Z,8.30
2024-02-08T13:34:41.900Z,10.70
2024-02-08T13:37:28.427Z,10.65
2024-02-08T13:40:15.005Z,7.78
2024-02-08T13:43:01.417Z,7.00
2024-02-08T13:45:51.645Z,5.10
2024-02-08T13:48:38.022Z,4.30
2024-02-08T13:51:24.217Z,4.10
2024-02-08T13:54:13.978Z,4.60
2024-02-08T13:56:59.563Z,3.10
2024-02-08T13:59:49.935Z,5.20
2024-02-08T14:02:37.800Z,5.22
2024-02-08T14:05:27.016Z,7.20
2024-02-08T14:08:19.143Z,8.55
2024-02-08T14:11:10.658Z,8.85
2024-02-08T14:13:58.181Z,8.48
2024-02-08T14:16:48.979Z,5.93
2024-02-08T14:19:38.325Z,6.20
2024-02-08T14:22:26.037Z,5.72
2024-02-08T14:25:24.820Z,6.45
2024-02-08T14:28:13.794Z,6.07
2024-02-08T14:31:03.031Z,6.57
2024-02-08T14:33:50.094Z,4.78
2024-02-08T14:36:35.494Z,8.40
2024-02-08T14:39:34.241Z,13.85
2024-02-08T14:42:26.437Z,5.22
2024-02-08T14:45:13.527Z,7.82
2024-02-08T14:48:01.765Z,6.57
2024-02-08T14:50:50.181Z,5.90
2024-02-08T14:53:41.799Z,8.82
2024-02-08T14:56:27.547Z,8.75
2024-02-08T14:59:15.141Z,6.65
2024-02-08T15:02:21.096Z,7.20
2024-02-08T15:05:27.123Z,6.68
2024-02-08T15:08:36.052Z,5.95
2024-02-08T15:11:48.069Z,7.97
2024-02-08T15:14:59.404Z,8.70
2024-02-08T15:18:04.918Z,14.13
2024-02-08T15:21:10.468Z,10.95
2024-02-08T15:24:09.372Z,13.07
2024-02-08T15:27:26.715Z,13.35
2024-02-08T15:30:32.778Z,8.77
2024-02-08T15:33:38.539Z,9.48
2024-02-08T15:36:51.573Z,7.70
2024-02-08T15:39:37.428Z,7.82
2024-02-08T15:42:52.774Z,7.43
2024-02-08T15:45:58.693Z,8.35
2024-02-08T15:49:04.790Z,5.82
2024-02-08T15:52:10.423Z,5.28
2024-02-08T15:55:00.368Z,10.63
2024-02-08T15:58:09.034Z,21.25
2024-02-08T16:01:23.676Z,8.38
2024-02-08T16:04:28.650Z,3.55
2024-02-08T16:07:20.339Z,6.20
2024-02-08T16:10:21.125Z,4.38
2024-02-08T16:13:27.390Z,4.25
2024-02-08T16:16:33.069Z,4.78
2024-02-08T16:19:42.026Z,3.92
2024-02-08T16:22:31.392Z,6.35
2024-02-08T16:25:38.377Z,4.13
2024-02-08T16:28:30.355Z,3.40
2024-02-08T16:31:19.393Z,3.42
2024-02-08T16:34:25.875Z,8.20
2024-02-08T16:37:31.640Z,3.17
2024-02-08T16:40:29.335Z,2.90
2024-02-08T16:43:35.241Z,2.53
2024-02-08T16:46:41.043Z,4.25
2024-02-08T16:49:47.113Z,4.85
2024-02-08T16:52:52.963Z,5.68
2024-02-08T16:55:58.812Z,5.70
2024-02-08T16:59:07.352Z,5.38
2024-02-08T17:02:25.528Z,6.30
2024-02-08T17:05:31.080Z,4.10
2024-02-08T17:08:39.670Z,3.55
2024-02-08T17:11:45.097Z,3.20
2024-02-08T17:15:00.314Z,3.08
2024-02-08T17:18:05.721Z,2.80
2024-02-08T17:21:15.358Z,5.70
2024-02-08T17:24:20.787Z,2.70
2024-02-08T17:27:26.202Z,3.83
2024-02-08T17:30:31.858Z,4.25
2024-02-08T17:33:37.791Z,2.65
2024-02-08T17:36:43.702Z,4.25
2024-02-08T17:39:58.706Z,3.70
2024-02-08T17:43:05.957Z,2.95
2024-02-08T17:46:13.004Z,3.42
2024-02-08T17:49:18.936Z,3.55
2024-02-08T17:52:25.816Z,3.67
2024-02-08T17:55:32.164Z,2.83
2024-02-08T17:58:41.825Z,3.25
2024-02-08T18:01:52.990Z,2.50
2024-02-08T18:04:59.651Z,2.75
2024-02-08T18:08:05.141Z,2.60
2024-02-08T18:11:14.110Z,3.00
2024-02-08T18:14:19.590Z,2.95
2024-02-08T18:17:25.923Z,2.00
2024-02-08T18:20:38.209Z,2.13
2024-02-08T18:23:44.002Z,2.60
2024-02-08T18:26:49.783Z,2.00
2024-02-08T18:29:55.425Z,2.00
2024-02-08T18:33:00.995Z,2.38
2024-02-08T18:36:06.900Z,1.95
2024-02-08T18:38:54.256Z,2.60
2024-02-08T18:42:00.416Z,2.40
2024-02-08T18:44:46.543Z,2.28
2024-02-08T18:47:35.406Z,3.58
2024-02-08T18:50:31.948Z,3.60
2024-02-08T18:53:41.775Z,3.75
2024-02-08T18:56:47.877Z,1.52
2024-02-08T18:59:34.566Z,2.08
2024-02-08T19:02:41.194Z,1.90
2024-02-08T19:05:51.114Z,2.10
2024-02-08T19:08:38.220Z,1.77
2024-02-08T19:11:26.010Z,1.90
2024-02-08T19:14:13.910Z,1.85
2024-02-08T19:17:03.141Z,1.80
2024-02-08T19:19:50.703Z,2.25
2024-02-08T19:22:41.929Z,2.33
2024-02-08T19:25:30.666Z,1.70
2024-02-08T19:28:23.363Z,2.72
2024-02-08T19:31:31.686Z,1.70
2024-02-08T19:34:40.603Z,2.30
2024-02-08T19:37:47.940Z,3.00
2024-02-08T19:40:53.980Z,1.67
2024-02-08T19:44:00.170Z,1.63
2024-02-08T19:47:09.549Z,1.25
2024-02-08T19:50:23.215Z,1.70
2024-02-08T19:53:09.704Z,2.08
2024-02-08T19:55:56.696Z,2.75
2024-02-08T19:58:44.444Z,2.55
2024-02-08T20:01:37.391Z,2.35
2024-02-08T20:04:29.286Z,2.20
2024-02-08T20:07:15.110Z,3.10
2024-02-08T20:10:21.336Z,3.05
2024-02-08T20:13:14.971Z,3.70
2024-02-08T20:16:01.367Z,2.95
2024-02-08T20:19:07.293Z,2.55
2024-02-08T20:22:13.682Z,3.13
2024-02-08T20:25:19.629Z,3.05
2024-02-08T20:28:07.748Z,3.97
2024-02-08T20:30:56.231Z,3.42
2024-02-08T20:34:02.069Z,3.95
2024-02-08T20:37:07.648Z,2.83
2024-02-08T20:40:13.695Z,2.30
2024-02-08T20:43:19.692Z,2.83
2024-02-08T20:46:06.669Z,1.92
2024-02-08T20:48:57.291Z,1.25
2024-02-08T20:52:04.103Z,2.25
2024-02-08T20:55:10.531Z,1.88
2024-02-08T20:58:16.654Z,3.40
2024-02-08T21:01:22.536Z,2.63
2024-02-08T21:04:28.706Z,2.83
2024-02-08T21:07:34.869Z,3.08
2024-02-08T21:10:43.847Z,3.03
2024-02-08T21:13:50.395Z,3.15
2024-02-08T21:16:41.318Z,2.38
2024-02-08T21:19:26.955Z,1.08
2024-02-08T21:22:32.808Z,1.90
2024-02-08T21:25:38.535Z,1.40
2024-02-08T21:28:44.555Z,1.40
2024-02-08T21:31:30.395Z,1.50
2024-02-08T21:34:16.328Z,1.15
2024-02-08T21:37:27.997Z,1.35
2024-02-08T21:40:34.407Z,1.60
2024-02-08T21:43:21.389Z,1.73
2024-02-08T21:46:27.091Z,1.10
2024-02-08T21:49:32.658Z,1.20
2024-02-08T21:52:34.157Z,1.33
2024-02-08T21:55:39.611Z,1.10
2024-02-08T21:58:45.657Z,1.40
2024-02-08T22:01:51.398Z,1.55
2024-02-08T22:04:58.267Z,1.02
2024-02-08T22:08:04.242Z,1.42
2024-02-08T22:11:13.356Z,2.45
2024-02-08T22:14:19.371Z,1.25
2024-02-08T22:17:25.064Z,1.63
2024-02-08T22:20:32.055Z,1.42
2024-02-08T22:23:38.005Z,1.73
2024-02-08T22:26:43.746Z,1.90
2024-02-08T22:29:49.479Z,1.40
2024-02-08T22:32:55.128Z,2.17
2024-02-08T22:36:01.036Z,1.70
2024-02-08T22:39:06.569Z,2.00
2024-02-08T22:42:12.816Z,1.55
2024-02-08T22:45:18.947Z,1.80
2024-02-08T22:48:25.288Z,2.10
2024-02-08T22:51:32.071Z,1.38
2024-02-08T22:54:37.804Z,1.17
2024-02-08T22:57:43.375Z,1.67
2024-02-08T23:00:29.296Z,1.30
2024-02-08T23:03:15.249Z,1.48
2024-02-08T23:06:21.158Z,1.73
2024-02-08T23:09:26.678Z,1.70
2024-02-08T23:12:32.412Z,2.17
2024-02-08T23:15:26.863Z,2.78
2024-02-08T23:18:16.735Z,3.40
2024-02-08T23:21:07.107Z,3.75
2024-02-08T23:23:53.354Z,3.38
2024-02-08T23:26:38.832Z,2.10
2024-02-08T23:29:25.996Z,2.70
2024-02-08T23:32:12.372Z,3.35
2024-02-08T23:34:58.960Z,3.30
2024-02-08T23:37:47.918Z,3.45
2024-02-08T23:54:43.409Z,1.80
2024-02-08T23:57:30.444Z,1.77
